Condor Rapide — C6YK8 — position and weather

sailwx.info

Track history (hours):
 
Tides and Currents Weather Stations Pressure Air Temp Water Temp Dewpoint Dewpoint Depression Visibility Wind Speed Wind Dir Waves Ship Positions

Condor Rapide

Last reported at 2017-Nov-20 00:24 UTC. Time now 2017-Nov-20 19:03 UTC.
Position N 48°38' W 002°02'.

Length 86 m; draft 3.7 m.

Type: High speed craft. MMSI: 311036800.

Date/timePositionNaut miles runAvg speedWind from/ knotsBaromVisibWave heightAir tempDewpointWater temp
2017-Nov-20 00:24N 48°38' W 002°02'0 0.0
2017-Nov-18 10:03N 48°38' W 002°02'0 2.2
2017-Nov-18 10:00N 48°38' W 002°02'3129.2
2017-Nov-18 08:56N 49°09' W 002°07'31 8.8
2017-Nov-18 05:24N 48°38' W 002°02'0 0.0
2017-Nov-18 04:54N 48°38' W 002°02'0 0.0
2017-Nov-18 04:12N 48°38' W 002°02'42 3.0
2017-Nov-17 14:07N 49°18' W 002°23'433.7
2017-Nov-17 14:00N 49°21' W 002°26'714.7
2017-Nov-17 13:30N 49°27' W 002°32'0 0.0
2017-Nov-17 13:00N 49°27' W 002°32'1 1.4
2017-Nov-17 12:30N 49°28' W 002°31'6235.6
2017-Nov-17 10:45N 50°26' W 001°58'934.6
2017-Nov-17 10:31N 50°34' W 001°54'714.3
2017-Nov-17 10:01N 50°41' W 001°57'2 3.7
2017-Nov-17 09:30N 50°42' W 001°59'0 0.0
2017-Nov-17 09:00N 50°42' W 001°59'0 0.0
2017-Nov-17 08:30N 50°42' W 001°59'0 0.0
2017-Nov-17 08:00N 50°42' W 001°59'0 0.0
2017-Nov-17 07:30N 50°42' W 001°59'0 0.0
2017-Nov-17 07:01N 50°42' W 001°59'0 0.0
2017-Nov-17 06:30N 50°42' W 001°59'0 0.0
2017-Nov-17 06:01N 50°42' W 001°59'0 0.0
2017-Nov-17 05:30N 50°42' W 001°59'0 0.0
2017-Nov-17 05:01N 50°42' W 001°59'0 0.0
2017-Nov-17 04:30N 50°42' W 001°59'0 0.0
2017-Nov-17 04:00N 50°42' W 001°59'0 0.0
2017-Nov-17 03:30N 50°42' W 001°59'0 0.0
2017-Nov-17 03:00N 50°42' W 001°59'0 0.0
2017-Nov-17 02:30N 50°42' W 001°59'0 0.0
2017-Nov-17 02:00N 50°42' W 001°59'0 0.0
2017-Nov-17 01:31N 50°42' W 001°59'0 0.0
2017-Nov-17 01:01N 50°42' W 001°59'0 0.0
2017-Nov-17 00:31N 50°42' W 001°59'0 0.0
2017-Nov-17 00:01N 50°42' W 001°59'0 0.0
2017-Nov-16 23:31N 50°42' W 001°59'0 0.0
2017-Nov-16 23:00N 50°42' W 001°59'0 0.0
2017-Nov-16 22:30N 50°42' W 001°59'0 0.0
2017-Nov-16 22:00N 50°42' W 001°59'0 0.0
2017-Nov-16 21:30N 50°42' W 001°59'0 0.0
2017-Nov-16 21:00N 50°42' W 001°59'0 0.0
2017-Nov-16 20:30N 50°42' W 001°59'0 0.0
2017-Nov-16 20:00N 50°42' W 001°59'0 0.0
2017-Nov-16 19:31N 50°42' W 001°59'0 0.0
2017-Nov-16 19:01N 50°42' W 001°59'0 0.0
2017-Nov-16 18:30N 50°42' W 001°59'0 0.0
2017-Nov-16 18:00N 50°42' W 001°59'0 0.0
2017-Nov-16 17:30N 50°42' W 001°59'0 0.0
2017-Nov-16 17:00N 50°42' W 001°59'0 0.0
2017-Nov-16 16:30N 50°42' W 001°59'0 0.0
2017-Nov-16 16:00N 50°42' W 001°59'0 0.0
2017-Nov-16 15:30N 50°42' W 001°59'0 0.0
2017-Nov-16 15:00N 50°42' W 001°59'0 0.0
2017-Nov-16 14:30N 50°42' W 001°59'0 0.0
2017-Nov-16 14:00N 50°42' W 001°59'0 0.0
2017-Nov-16 13:30N 50°42' W 001°59'0 0.0
2017-Nov-16 13:00N 50°42' W 001°59'0 0.0
2017-Nov-16 12:30N 50°42' W 001°59'0 0.0
2017-Nov-16 12:00N 50°42' W 001°59'0 0.0
2017-Nov-16 11:30N 50°42' W 001°59'0 0.0
2017-Nov-16 11:01N 50°42' W 001°59'0 0.0
2017-Nov-16 10:31N 50°42' W 001°59'0 0.0
2017-Nov-16 10:00N 50°42' W 001°59'0 0.0
2017-Nov-16 09:30N 50°42' W 001°59'0 0.0
2017-Nov-16 09:00N 50°42' W 001°59'0 0.0
2017-Nov-16 08:30N 50°42' W 001°59'0 0.0
2017-Nov-16 08:00N 50°42' W 001°59'0 0.0
2017-Nov-16 07:31N 50°42' W 001°59'0 0.0
2017-Nov-16 07:01N 50°42' W 001°59'0 0.0
2017-Nov-16 06:31N 50°42' W 001°59'0 0.0
2017-Nov-16 06:00N 50°42' W 001°59'0 0.0
2017-Nov-16 05:30N 50°42' W 001°59'0 0.0
2017-Nov-16 05:01N 50°42' W 001°59'0 0.0
2017-Nov-16 04:30N 50°42' W 001°59'0 0.0
2017-Nov-16 04:01N 50°42' W 001°59'0 0.0
2017-Nov-16 03:30N 50°42' W 001°59'0 0.0
2017-Nov-16 03:00N 50°42' W 001°59'0 0.0
2017-Nov-16 02:30N 50°42' W 001°59'0 0.0
2017-Nov-16 02:00N 50°42' W 001°59'0 0.0
2017-Nov-16 01:30N 50°42' W 001°59'0 0.0
2017-Nov-16 01:00N 50°42' W 001°59'0 0.0
2017-Nov-16 00:30N 50°42' W 001°59'0 0.0
2017-Nov-16 00:01N 50°42' W 001°59'0 0.0
2017-Nov-15 23:30N 50°42' W 001°59'0 0.0
2017-Nov-15 23:00N 50°42' W 001°59'0 0.0
2017-Nov-15 22:30N 50°42' W 001°59'0 0.0
2017-Nov-15 22:01N 50°42' W 001°59'0 0.0
2017-Nov-15 21:31N 50°42' W 001°59'0 0.0
2017-Nov-15 21:01N 50°42' W 001°59'0 0.0
2017-Nov-15 20:30N 50°42' W 001°59'0 0.0
2017-Nov-15 20:00N 50°42' W 001°59'0 0.0
2017-Nov-15 19:30N 50°42' W 001°59'0 0.0
2017-Nov-15 19:00N 50°42' W 001°59'0 0.0
2017-Nov-15 18:30N 50°42' W 001°59'0 0.0
2017-Nov-15 18:00N 50°42' W 001°59'0 0.0
2017-Nov-15 17:31N 50°42' W 001°59'0 0.0
2017-Nov-15 17:00N 50°42' W 001°59'0 0.0
2017-Nov-15 16:30N 50°42' W 001°59'0 0.0
2017-Nov-15 16:00N 50°42' W 001°59'0 0.0
2017-Nov-15 15:30N 50°42' W 001°59'0 0.0
2017-Nov-15 15:00N 50°42' W 001°59'0 0.0
2017-Nov-15 14:30N 50°42' W 001°59'0 0.0
2017-Nov-15 14:00N 50°42' W 001°59'0 0.0
2017-Nov-15 13:31N 50°42' W 001°59'0 0.0
2017-Nov-15 13:01N 50°42' W 001°59'0 0.0
2017-Nov-15 12:30N 50°42' W 001°59'0 0.0
2017-Nov-15 12:00N 50°42' W 001°59'0 0.0
2017-Nov-15 11:30N 50°42' W 001°59'0 0.0
2017-Nov-15 11:00N 50°42' W 001°59'0 0.0
2017-Nov-15 10:30N 50°42' W 001°59'0 0.0
2017-Nov-15 10:00N 50°42' W 001°59'0 0.0
2017-Nov-15 09:31N 50°42' W 001°59'0 0.0
2017-Nov-15 09:01N 50°42' W 001°59'0 0.0
2017-Nov-15 08:31N 50°42' W 001°59'0 0.0
2017-Nov-15 08:00N 50°42' W 001°59'0 0.0
2017-Nov-15 07:30N 50°42' W 001°59'0 0.0
2017-Nov-15 07:00N 50°42' W 001°59'0 0.0
2017-Nov-15 06:30N 50°42' W 001°59'0 0.0
2017-Nov-15 06:00N 50°42' W 001°59'0 0.0
2017-Nov-15 05:30N 50°42' W 001°59'0 0.0
2017-Nov-15 05:00N 50°42' W 001°59'0 0.0
2017-Nov-15 04:31N 50°42' W 001°59'0 0.0
2017-Nov-15 04:00N 50°42' W 001°59'0 0.0
2017-Nov-15 03:31N 50°42' W 001°59'0 0.0
2017-Nov-15 03:01N 50°42' W 001°59'0 0.0
2017-Nov-15 02:30N 50°42' W 001°59'0 0.0
2017-Nov-15 02:01N 50°42' W 001°59'0 0.0
2017-Nov-15 01:30N 50°42' W 001°59'0 0.0
2017-Nov-15 01:00N 50°42' W 001°59'0 0.0
2017-Nov-15 00:30N 50°42' W 001°59'0 0.0
2017-Nov-15 00:00N 50°42' W 001°59'0 0.0
2017-Nov-14 23:30N 50°42' W 001°59'0 0.0
2017-Nov-14 23:01N 50°42' W 001°59'0 0.0
2017-Nov-14 22:30N 50°42' W 001°59'0 0.0
2017-Nov-14 22:00N 50°42' W 001°59'0 0.0
2017-Nov-14 21:30N 50°42' W 001°59'0 0.0
2017-Nov-14 21:00N 50°42' W 001°59'0 0.0
2017-Nov-14 20:31N 50°42' W 001°59'0 0.0
2017-Nov-14 20:00N 50°42' W 001°59'0 0.0
2017-Nov-14 19:30N 50°42' W 001°59'0 0.0
2017-Nov-14 19:00N 50°42' W 001°59'0 0.0
2017-Nov-14 18:30N 50°42' W 001°59'0 0.0
2017-Nov-14 18:00N 50°42' W 001°59'0 0.0
2017-Nov-14 17:30N 50°42' W 001°59'0 0.0
2017-Nov-14 17:00N 50°42' W 001°59'0 0.0
2017-Nov-14 16:31N 50°42' W 001°59'0 0.0
2017-Nov-14 16:00N 50°42' W 001°59'0 0.0
2017-Nov-14 15:31N 50°42' W 001°59'0 0.0
2017-Nov-14 15:00N 50°42' W 001°59'0 0.0
2017-Nov-14 14:30N 50°42' W 001°59'0 0.0
2017-Nov-14 14:00N 50°42' W 001°59'0 0.0
2017-Nov-14 13:30N 50°42' W 001°59'0 0.0
2017-Nov-14 13:01N 50°42' W 001°59'0 0.0
2017-Nov-14 12:31N 50°42' W 001°59'0 0.0
2017-Nov-14 12:00N 50°42' W 001°59'0 0.0
2017-Nov-14 11:30N 50°42' W 001°59'0 0.0
2017-Nov-14 11:00N 50°42' W 001°59'0 0.0
2017-Nov-14 10:30N 50°42' W 001°59'0 0.0
2017-Nov-14 10:00N 50°42' W 001°59'0 0.0
2017-Nov-14 09:30N 50°42' W 001°59'0 0.0
2017-Nov-14 09:00N 50°42' W 001°59'0 0.0
2017-Nov-14 08:31N 50°42' W 001°59'0 0.0
2017-Nov-14 08:00N 50°42' W 001°59'0 0.0
2017-Nov-14 07:31N 50°42' W 001°59'0 0.0
2017-Nov-14 07:00N 50°42' W 001°59'0 0.0
2017-Nov-14 06:30N 50°42' W 001°59'0 0.0
2017-Nov-14 06:00N 50°42' W 001°59'0 0.0
2017-Nov-14 05:31N 50°42' W 001°59'0 0.0
2017-Nov-14 05:00N 50°42' W 001°59'0 0.0
2017-Nov-14 04:31N 50°42' W 001°59'0 0.0
2017-Nov-14 04:01N 50°42' W 001°59'0 0.0
2017-Nov-14 03:30N 50°42' W 001°59'0 0.0
2017-Nov-14 03:01N 50°42' W 001°59'0 0.0
2017-Nov-14 02:30N 50°42' W 001°59'0 0.0
2017-Nov-14 02:00N 50°42' W 001°59'0 0.0
2017-Nov-14 01:30N 50°42' W 001°59'0 0.0
2017-Nov-14 01:01N 50°42' W 001°59'0 0.0
2017-Nov-14 00:31N 50°42' W 001°59'0 0.0
2017-Nov-14 00:00N 50°42' W 001°59'0 0.0
2017-Nov-13 23:30N 50°42' W 001°59'0 0.0
2017-Nov-13 23:01N 50°42' W 001°59'0 0.0
2017-Nov-13 22:31N 50°42' W 001°59'0 0.0
2017-Nov-13 22:00N 50°42' W 001°59'  
2017-Nov-10 13:34N 49°09' W 002°07'1 1.0
2017-Nov-10 12:13N 49°11' W 002°07'520.7
2017-Nov-10 11:58N 49°10' W 002°15'1327.7
2017-Nov-10 11:30N 49°21' W 002°25'815.7
2017-Nov-10 11:01N 49°27' W 002°32'0 0.0
2017-Nov-10 10:31N 49°27' W 002°32'917.7
2017-Nov-10 10:00N 49°35' W 002°25'5429.8
2017-Nov-10 08:12N 50°26' W 001°58'631.8
2017-Nov-10 08:01N 50°32' W 001°55'918.6
2017-Nov-10 07:30N 50°41' W 001°57'2 3.7
2017-Nov-10 06:59N 50°42' W 001°59'0 0.0
2017-Nov-10 06:29N 50°42' W 001°59'0 0.0
2017-Nov-10 05:59N 50°42' W 001°59'0 0.0
2017-Nov-10 05:29N 50°42' W 001°59'0 0.0
2017-Nov-10 04:59N 50°42' W 001°59'0 0.0
2017-Nov-10 04:23N 50°42' W 001°59'0 0.0
2017-Nov-10 03:56N 50°42' W 001°59'0 0.0
2017-Nov-10 03:29N 50°42' W 001°59'0 0.0
2017-Nov-10 02:59N 50°42' W 001°59'0 0.0
2017-Nov-10 02:29N 50°42' W 001°59'0 0.0
2017-Nov-10 01:59N 50°42' W 001°59'0 0.0
2017-Nov-10 01:26N 50°42' W 001°59'0 0.0
2017-Nov-10 00:59N 50°42' W 001°59'0 0.0
2017-Nov-10 00:26N 50°42' W 001°59'  
Track history (hours):
 
Tides and Currents Weather Stations Pressure Air Temp Water Temp Dewpoint Dewpoint Depression Visibility Wind Speed Wind Dir Waves Ship Positions

Condor Rapide

Last reported at 2017-Nov-20 00:24 UTC. Time now 2017-Nov-20 19:03 UTC.
Position N 48°38' W 002°02'.

Length 86 m; draft 3.7 m.

Type: High speed craft. MMSI: 311036800.

Date/timePositionNaut miles runAvg speedWind from/ knotsBaromVisibWave heightAir tempDewpointWater temp
2017-Nov-20 00:24N 48°38' W 002°02'0 0.0
2017-Nov-18 10:03N 48°38' W 002°02'0 2.2
2017-Nov-18 10:00N 48°38' W 002°02'3129.2
2017-Nov-18 08:56N 49°09' W 002°07'31 8.8
2017-Nov-18 05:24N 48°38' W 002°02'0 0.0
2017-Nov-18 04:54N 48°38' W 002°02'0 0.0
2017-Nov-18 04:12N 48°38' W 002°02'42 3.0
2017-Nov-17 14:07N 49°18' W 002°23'433.7
2017-Nov-17 14:00N 49°21' W 002°26'714.7
2017-Nov-17 13:30N 49°27' W 002°32'0 0.0
2017-Nov-17 13:00N 49°27' W 002°32'1 1.4
2017-Nov-17 12:30N 49°28' W 002°31'6235.6
2017-Nov-17 10:45N 50°26' W 001°58'934.6
2017-Nov-17 10:31N 50°34' W 001°54'714.3
2017-Nov-17 10:01N 50°41' W 001°57'2 3.7
2017-Nov-17 09:30N 50°42' W 001°59'0 0.0
2017-Nov-17 09:00N 50°42' W 001°59'0 0.0
2017-Nov-17 08:30N 50°42' W 001°59'0 0.0
2017-Nov-17 08:00N 50°42' W 001°59'0 0.0
2017-Nov-17 07:30N 50°42' W 001°59'0 0.0
2017-Nov-17 07:01N 50°42' W 001°59'0 0.0
2017-Nov-17 06:30N 50°42' W 001°59'0 0.0
2017-Nov-17 06:01N 50°42' W 001°59'0 0.0
2017-Nov-17 05:30N 50°42' W 001°59'0 0.0
2017-Nov-17 05:01N 50°42' W 001°59'0 0.0
2017-Nov-17 04:30N 50°42' W 001°59'0 0.0
2017-Nov-17 04:00N 50°42' W 001°59'0 0.0
2017-Nov-17 03:30N 50°42' W 001°59'0 0.0
2017-Nov-17 03:00N 50°42' W 001°59'0 0.0
2017-Nov-17 02:30N 50°42' W 001°59'0 0.0
2017-Nov-17 02:00N 50°42' W 001°59'0 0.0
2017-Nov-17 01:31N 50°42' W 001°59'0 0.0
2017-Nov-17 01:01N 50°42' W 001°59'0 0.0
2017-Nov-17 00:31N 50°42' W 001°59'0 0.0
2017-Nov-17 00:01N 50°42' W 001°59'0 0.0
2017-Nov-16 23:31N 50°42' W 001°59'0 0.0
2017-Nov-16 23:00N 50°42' W 001°59'0 0.0
2017-Nov-16 22:30N 50°42' W 001°59'0 0.0
2017-Nov-16 22:00N 50°42' W 001°59'0 0.0
2017-Nov-16 21:30N 50°42' W 001°59'0 0.0
2017-Nov-16 21:00N 50°42' W 001°59'0 0.0
2017-Nov-16 20:30N 50°42' W 001°59'0 0.0
2017-Nov-16 20:00N 50°42' W 001°59'0 0.0
2017-Nov-16 19:31N 50°42' W 001°59'0 0.0
2017-Nov-16 19:01N 50°42' W 001°59'0 0.0
2017-Nov-16 18:30N 50°42' W 001°59'0 0.0
2017-Nov-16 18:00N 50°42' W 001°59'0 0.0
2017-Nov-16 17:30N 50°42' W 001°59'0 0.0
2017-Nov-16 17:00N 50°42' W 001°59'0 0.0
2017-Nov-16 16:30N 50°42' W 001°59'0 0.0
2017-Nov-16 16:00N 50°42' W 001°59'0 0.0
2017-Nov-16 15:30N 50°42' W 001°59'0 0.0
2017-Nov-16 15:00N 50°42' W 001°59'0 0.0
2017-Nov-16 14:30N 50°42' W 001°59'0 0.0
2017-Nov-16 14:00N 50°42' W 001°59'0 0.0
2017-Nov-16 13:30N 50°42' W 001°59'0 0.0
2017-Nov-16 13:00N 50°42' W 001°59'0 0.0
2017-Nov-16 12:30N 50°42' W 001°59'0 0.0
2017-Nov-16 12:00N 50°42' W 001°59'0 0.0
2017-Nov-16 11:30N 50°42' W 001°59'0 0.0
2017-Nov-16 11:01N 50°42' W 001°59'0 0.0
2017-Nov-16 10:31N 50°42' W 001°59'0 0.0
2017-Nov-16 10:00N 50°42' W 001°59'0 0.0
2017-Nov-16 09:30N 50°42' W 001°59'0 0.0
2017-Nov-16 09:00N 50°42' W 001°59'0 0.0
2017-Nov-16 08:30N 50°42' W 001°59'0 0.0
2017-Nov-16 08:00N 50°42' W 001°59'0 0.0
2017-Nov-16 07:31N 50°42' W 001°59'0 0.0
2017-Nov-16 07:01N 50°42' W 001°59'0 0.0
2017-Nov-16 06:31N 50°42' W 001°59'0 0.0
2017-Nov-16 06:00N 50°42' W 001°59'0 0.0
2017-Nov-16 05:30N 50°42' W 001°59'0 0.0
2017-Nov-16 05:01N 50°42' W 001°59'0 0.0
2017-Nov-16 04:30N 50°42' W 001°59'0 0.0
2017-Nov-16 04:01N 50°42' W 001°59'0 0.0
2017-Nov-16 03:30N 50°42' W 001°59'0 0.0
2017-Nov-16 03:00N 50°42' W 001°59'0 0.0
2017-Nov-16 02:30N 50°42' W 001°59'0 0.0
2017-Nov-16 02:00N 50°42' W 001°59'0 0.0
2017-Nov-16 01:30N 50°42' W 001°59'0 0.0
2017-Nov-16 01:00N 50°42' W 001°59'0 0.0
2017-Nov-16 00:30N 50°42' W 001°59'0 0.0
2017-Nov-16 00:01N 50°42' W 001°59'0 0.0
2017-Nov-15 23:30N 50°42' W 001°59'0 0.0
2017-Nov-15 23:00N 50°42' W 001°59'0 0.0
2017-Nov-15 22:30N 50°42' W 001°59'0 0.0
2017-Nov-15 22:01N 50°42' W 001°59'0 0.0
2017-Nov-15 21:31N 50°42' W 001°59'0 0.0
2017-Nov-15 21:01N 50°42' W 001°59'0 0.0
2017-Nov-15 20:30N 50°42' W 001°59'0 0.0
2017-Nov-15 20:00N 50°42' W 001°59'0 0.0
2017-Nov-15 19:30N 50°42' W 001°59'0 0.0
2017-Nov-15 19:00N 50°42' W 001°59'0 0.0
2017-Nov-15 18:30N 50°42' W 001°59'0 0.0
2017-Nov-15 18:00N 50°42' W 001°59'0 0.0
2017-Nov-15 17:31N 50°42' W 001°59'0 0.0
2017-Nov-15 17:00N 50°42' W 001°59'0 0.0
2017-Nov-15 16:30N 50°42' W 001°59'0 0.0
2017-Nov-15 16:00N 50°42' W 001°59'0 0.0
2017-Nov-15 15:30N 50°42' W 001°59'0 0.0
2017-Nov-15 15:00N 50°42' W 001°59'0 0.0
2017-Nov-15 14:30N 50°42' W 001°59'0 0.0
2017-Nov-15 14:00N 50°42' W 001°59'0 0.0
2017-Nov-15 13:31N 50°42' W 001°59'0 0.0
2017-Nov-15 13:01N 50°42' W 001°59'0 0.0
2017-Nov-15 12:30N 50°42' W 001°59'0 0.0
2017-Nov-15 12:00N 50°42' W 001°59'0 0.0
2017-Nov-15 11:30N 50°42' W 001°59'0 0.0
2017-Nov-15 11:00N 50°42' W 001°59'0 0.0
2017-Nov-15 10:30N 50°42' W 001°59'0 0.0
2017-Nov-15 10:00N 50°42' W 001°59'0 0.0
2017-Nov-15 09:31N 50°42' W 001°59'0 0.0
2017-Nov-15 09:01N 50°42' W 001°59'0 0.0
2017-Nov-15 08:31N 50°42' W 001°59'0 0.0
2017-Nov-15 08:00N 50°42' W 001°59'0 0.0
2017-Nov-15 07:30N 50°42' W 001°59'0 0.0
2017-Nov-15 07:00N 50°42' W 001°59'0 0.0
2017-Nov-15 06:30N 50°42' W 001°59'0 0.0
2017-Nov-15 06:00N 50°42' W 001°59'0 0.0
2017-Nov-15 05:30N 50°42' W 001°59'0 0.0
2017-Nov-15 05:00N 50°42' W 001°59'0 0.0
2017-Nov-15 04:31N 50°42' W 001°59'0 0.0
2017-Nov-15 04:00N 50°42' W 001°59'0 0.0
2017-Nov-15 03:31N 50°42' W 001°59'0 0.0
2017-Nov-15 03:01N 50°42' W 001°59'0 0.0
2017-Nov-15 02:30N 50°42' W 001°59'0 0.0
2017-Nov-15 02:01N 50°42' W 001°59'0 0.0
2017-Nov-15 01:30N 50°42' W 001°59'0 0.0
2017-Nov-15 01:00N 50°42' W 001°59'0 0.0
2017-Nov-15 00:30N 50°42' W 001°59'0 0.0
2017-Nov-15 00:00N 50°42' W 001°59'0 0.0
2017-Nov-14 23:30N 50°42' W 001°59'0 0.0
2017-Nov-14 23:01N 50°42' W 001°59'0 0.0
2017-Nov-14 22:30N 50°42' W 001°59'0 0.0
2017-Nov-14 22:00N 50°42' W 001°59'0 0.0
2017-Nov-14 21:30N 50°42' W 001°59'0 0.0
2017-Nov-14 21:00N 50°42' W 001°59'0 0.0
2017-Nov-14 20:31N 50°42' W 001°59'0 0.0
2017-Nov-14 20:00N 50°42' W 001°59'0 0.0
2017-Nov-14 19:30N 50°42' W 001°59'0 0.0
2017-Nov-14 19:00N 50°42' W 001°59'0 0.0
2017-Nov-14 18:30N 50°42' W 001°59'0 0.0
2017-Nov-14 18:00N 50°42' W 001°59'0 0.0
2017-Nov-14 17:30N 50°42' W 001°59'0 0.0
2017-Nov-14 17:00N 50°42' W 001°59'0 0.0
2017-Nov-14 16:31N 50°42' W 001°59'0 0.0
2017-Nov-14 16:00N 50°42' W 001°59'0 0.0
2017-Nov-14 15:31N 50°42' W 001°59'0 0.0
2017-Nov-14 15:00N 50°42' W 001°59'0 0.0
2017-Nov-14 14:30N 50°42' W 001°59'0 0.0
2017-Nov-14 14:00N 50°42' W 001°59'0 0.0
2017-Nov-14 13:30N 50°42' W 001°59'0 0.0
2017-Nov-14 13:01N 50°42' W 001°59'0 0.0
2017-Nov-14 12:31N 50°42' W 001°59'0 0.0
2017-Nov-14 12:00N 50°42' W 001°59'0 0.0
2017-Nov-14 11:30N 50°42' W 001°59'0 0.0
2017-Nov-14 11:00N 50°42' W 001°59'0 0.0
2017-Nov-14 10:30N 50°42' W 001°59'0 0.0
2017-Nov-14 10:00N 50°42' W 001°59'0 0.0
2017-Nov-14 09:30N 50°42' W 001°59'0 0.0
2017-Nov-14 09:00N 50°42' W 001°59'0 0.0
2017-Nov-14 08:31N 50°42' W 001°59'0 0.0
2017-Nov-14 08:00N 50°42' W 001°59'0 0.0
2017-Nov-14 07:31N 50°42' W 001°59'0 0.0
2017-Nov-14 07:00N 50°42' W 001°59'0 0.0
2017-Nov-14 06:30N 50°42' W 001°59'0 0.0
2017-Nov-14 06:00N 50°42' W 001°59'0 0.0
2017-Nov-14 05:31N 50°42' W 001°59'0 0.0
2017-Nov-14 05:00N 50°42' W 001°59'0 0.0
2017-Nov-14 04:31N 50°42' W 001°59'0 0.0
2017-Nov-14 04:01N 50°42' W 001°59'0 0.0
2017-Nov-14 03:30N 50°42' W 001°59'0 0.0
2017-Nov-14 03:01N 50°42' W 001°59'0 0.0
2017-Nov-14 02:30N 50°42' W 001°59'0 0.0
2017-Nov-14 02:00N 50°42' W 001°59'0 0.0
2017-Nov-14 01:30N 50°42' W 001°59'0 0.0
2017-Nov-14 01:01N 50°42' W 001°59'0 0.0
2017-Nov-14 00:31N 50°42' W 001°59'0 0.0
2017-Nov-14 00:00N 50°42' W 001°59'0 0.0
2017-Nov-13 23:30N 50°42' W 001°59'0 0.0
2017-Nov-13 23:01N 50°42' W 001°59'0 0.0
2017-Nov-13 22:31N 50°42' W 001°59'0 0.0
2017-Nov-13 22:00N 50°42' W 001°59'  
2017-Nov-10 13:34N 49°09' W 002°07'1 1.0
2017-Nov-10 12:13N 49°11' W 002°07'520.7
2017-Nov-10 11:58N 49°10' W 002°15'1327.7
2017-Nov-10 11:30N 49°21' W 002°25'815.7
2017-Nov-10 11:01N 49°27' W 002°32'0 0.0
2017-Nov-10 10:31N 49°27' W 002°32'917.7
2017-Nov-10 10:00N 49°35' W 002°25'5429.8
2017-Nov-10 08:12N 50°26' W 001°58'631.8
2017-Nov-10 08:01N 50°32' W 001°55'918.6
2017-Nov-10 07:30N 50°41' W 001°57'2 3.7
2017-Nov-10 06:59N 50°42' W 001°59'0 0.0
2017-Nov-10 06:29N 50°42' W 001°59'0 0.0
2017-Nov-10 05:59N 50°42' W 001°59'0 0.0
2017-Nov-10 05:29N 50°42' W 001°59'0 0.0
2017-Nov-10 04:59N 50°42' W 001°59'0 0.0
2017-Nov-10 04:23N 50°42' W 001°59'0 0.0
2017-Nov-10 03:56N 50°42' W 001°59'0 0.0
2017-Nov-10 03:29N 50°42' W 001°59'0 0.0
2017-Nov-10 02:59N 50°42' W 001°59'0 0.0
2017-Nov-10 02:29N 50°42' W 001°59'0 0.0
2017-Nov-10 01:59N 50°42' W 001°59'0 0.0
2017-Nov-10 01:26N 50°42' W 001°59'0 0.0
2017-Nov-10 00:59N 50°42' W 001°59'0 0.0
2017-Nov-10 00:26N 50°42' W 001°59'  

Dump ship's entire track history